createdAt,value
2022-10-18T00:01:00.599Z,0.00
2022-10-18T00:02:01.513Z,0.00
2022-10-18T00:03:02.382Z,0.00
2022-10-18T00:04:03.263Z,0.00
2022-10-18T00:05:04.165Z,0.00
2022-10-18T00:06:05.082Z,0.00
2022-10-18T00:07:05.971Z,0.00
2022-10-18T00:08:06.876Z,0.00
2022-10-18T00:09:07.778Z,0.00
2022-10-18T00:10:08.677Z,0.00
2022-10-18T00:11:09.588Z,0.00
2022-10-18T00:12:10.487Z,0.00
2022-10-18T00:13:11.370Z,0.00
2022-10-18T00:14:12.265Z,0.00
2022-10-18T00:15:13.157Z,0.00
2022-10-18T00:16:14.070Z,0.00
2022-10-18T00:17:14.962Z,0.00
2022-10-18T00:18:15.822Z,0.00
2022-10-18T00:19:16.736Z,0.00
2022-10-18T00:20:17.618Z,0.00
2022-10-18T00:21:18.498Z,0.00
2022-10-18T00:22:19.380Z,0.00
2022-10-18T00:23:20.253Z,0.00
2022-10-18T00:24:21.137Z,0.00
2022-10-18T00:25:22.019Z,0.00
2022-10-18T00:26:22.926Z,0.00
2022-10-18T00:27:23.824Z,0.00
2022-10-18T00:28:24.728Z,0.00
2022-10-18T00:29:25.571Z,0.00
2022-10-18T00:30:26.456Z,0.00
2022-10-18T00:31:27.359Z,0.00
2022-10-18T00:32:28.732Z,0.00
2022-10-18T00:33:28.764Z,0.00
2022-10-18T00:34:29.641Z,0.00
2022-10-18T00:35:30.514Z,0.00
2022-10-18T00:36:31.410Z,0.00
2022-10-18T00:37:32.314Z,0.00
2022-10-18T00:38:33.173Z,0.00
2022-10-18T00:39:34.063Z,0.00
2022-10-18T00:40:34.940Z,0.00
2022-10-18T00:41:35.825Z,0.00
2022-10-18T00:42:36.728Z,0.00
2022-10-18T00:43:37.580Z,0.00
2022-10-18T00:44:38.462Z,0.00
2022-10-18T00:45:39.346Z,0.00
2022-10-18T00:46:40.229Z,0.00
2022-10-18T00:47:41.152Z,0.00
2022-10-18T00:48:42.067Z,0.00
2022-10-18T00:49:42.907Z,0.00
2022-10-18T00:50:43.828Z,0.00
2022-10-18T00:51:44.725Z,0.00
2022-10-18T00:52:45.621Z,0.00
2022-10-18T00:53:46.569Z,0.00
2022-10-18T00:54:46.998Z,0.00
2022-10-18T00:55:47.899Z,0.00
2022-10-18T00:56:48.806Z,0.00
2022-10-18T00:57:49.816Z,0.00
2022-10-18T00:58:50.653Z,0.00
2022-10-18T00:59:51.535Z,0.00
2022-10-18T01:00:52.412Z,0.00
2022-10-18T01:01:53.362Z,0.00
2022-10-18T01:02:54.215Z,0.00
2022-10-18T01:03:55.128Z,0.00
2022-10-18T01:04:56.032Z,0.00
2022-10-18T01:05:56.923Z,0.00
2022-10-18T01:07:58.619Z,0.00
2022-10-18T01:08:59.505Z,0.00
2022-10-18T01:10:00.384Z,0.00
2022-10-18T01:11:01.267Z,0.00
2022-10-18T01:12:02.155Z,0.00
2022-10-18T01:13:03.062Z,0.00
2022-10-18T01:14:03.919Z,0.00
2022-10-18T01:15:04.795Z,0.00
2022-10-18T01:16:05.674Z,0.00
2022-10-18T01:17:06.572Z,0.00
2022-10-18T01:18:07.449Z,0.00
2022-10-18T01:19:08.324Z,0.00
2022-10-18T01:20:09.249Z,0.00
2022-10-18T01:21:10.157Z,0.00
2022-10-18T01:22:11.029Z,0.00
2022-10-18T01:23:11.929Z,0.00
2022-10-18T01:24:12.796Z,0.00
2022-10-18T01:25:13.686Z,0.00
2022-10-18T01:26:14.565Z,0.00
2022-10-18T01:27:15.457Z,0.00
2022-10-18T01:28:16.359Z,0.00
2022-10-18T01:29:17.222Z,0.00
2022-10-18T01:30:18.105Z,0.00
2022-10-18T01:31:19.002Z,0.00
2022-10-18T01:32:19.883Z,0.00
2022-10-18T01:33:20.766Z,0.00
2022-10-18T01:34:21.659Z,0.00
2022-10-18T01:35:22.531Z,0.00
2022-10-18T01:36:23.413Z,0.00
2022-10-18T01:37:24.303Z,0.00
2022-10-18T01:38:25.181Z,0.00
2022-10-18T01:39:26.054Z,0.00
2022-10-18T01:40:26.935Z,0.00
2022-10-18T01:41:27.818Z,0.00
2022-10-18T01:42:28.721Z,0.00
2022-10-18T01:43:29.618Z,0.00
2022-10-18T01:44:30.498Z,0.00
2022-10-18T01:45:31.390Z,0.00
2022-10-18T01:46:32.265Z,0.00
2022-10-18T01:47:33.605Z,0.00
2022-10-18T01:48:33.680Z,0.00
2022-10-18T01:49:34.532Z,0.00
2022-10-18T01:50:35.425Z,0.00
2022-10-18T01:51:36.301Z,0.00
2022-10-18T01:52:37.197Z,0.00
2022-10-18T01:53:38.146Z,0.00
2022-10-18T01:54:38.980Z,0.00
2022-10-18T01:55:39.859Z,0.00
2022-10-18T01:56:40.732Z,0.00
2022-10-18T01:57:41.645Z,0.00
2022-10-18T01:58:42.528Z,0.00
2022-10-18T01:59:43.422Z,0.00
2022-10-18T02:00:44.288Z,0.00
2022-10-18T02:01:45.157Z,0.00
2022-10-18T02:02:46.066Z,0.00
2022-10-18T02:03:46.973Z,0.00
2022-10-18T02:04:47.901Z,0.00
2022-10-18T02:05:48.782Z,0.00
2022-10-18T02:06:49.680Z,0.00
2022-10-18T02:08:00.119Z,0.00
2022-10-18T02:08:52.351Z,0.00
2022-10-18T02:09:52.236Z,0.00
2022-10-18T02:10:53.162Z,0.00
2022-10-18T02:11:54.003Z,0.00
2022-10-18T02:12:54.894Z,0.00
2022-10-18T02:13:55.788Z,0.00
2022-10-18T02:14:56.651Z,0.00
2022-10-18T02:15:57.537Z,0.00
2022-10-18T02:16:58.460Z,0.00
2022-10-18T02:17:59.315Z,0.00
2022-10-18T02:19:00.201Z,0.00
2022-10-18T02:20:01.073Z,0.00
2022-10-18T02:21:01.953Z,0.00
2022-10-18T02:22:02.836Z,0.00
2022-10-18T02:23:03.773Z,0.00
2022-10-18T02:24:04.626Z,0.00
2022-10-18T02:25:05.509Z,0.00
2022-10-18T02:26:06.392Z,0.00
2022-10-18T02:27:07.276Z,0.00
2022-10-18T02:28:08.166Z,0.00
2022-10-18T02:29:09.090Z,0.00
2022-10-18T02:30:09.950Z,0.00
2022-10-18T02:31:10.828Z,0.00
2022-10-18T02:32:11.722Z,0.00
2022-10-18T02:33:12.604Z,0.00
2022-10-18T02:34:13.488Z,0.00
2022-10-18T02:35:14.412Z,0.00
2022-10-18T02:36:15.265Z,0.00
2022-10-18T02:37:16.171Z,0.00
2022-10-18T02:38:17.034Z,0.00
2022-10-18T02:39:17.915Z,0.00
2022-10-18T02:40:18.800Z,0.00
2022-10-18T02:41:19.714Z,0.00
2022-10-18T02:42:20.583Z,0.00
2022-10-18T02:43:21.471Z,0.00
2022-10-18T02:44:22.378Z,0.00
2022-10-18T02:45:23.243Z,0.00
2022-10-18T02:46:24.240Z,0.00
2022-10-18T02:47:25.165Z,0.00
2022-10-18T02:48:26.013Z,0.00
2022-10-18T02:49:26.894Z,0.00
2022-10-18T02:50:27.793Z,0.00
2022-10-18T02:51:28.673Z,0.00
2022-10-18T02:52:29.556Z,0.00
2022-10-18T02:53:30.489Z,0.00
2022-10-18T02:54:31.345Z,0.00
2022-10-18T02:55:32.247Z,0.00
2022-10-18T02:56:33.112Z,0.00
2022-10-18T02:57:34.333Z,0.00
2022-10-18T02:58:34.811Z,0.00
2022-10-18T02:59:35.719Z,0.00
2022-10-18T03:00:36.578Z,0.00
2022-10-18T03:01:37.469Z,0.00
2022-10-18T03:02:38.342Z,0.00
2022-10-18T03:03:39.227Z,0.00
2022-10-18T03:04:40.098Z,0.00
2022-10-18T03:05:41.015Z,0.00
2022-10-18T03:06:41.874Z,0.00
2022-10-18T03:07:42.767Z,0.00
2022-10-18T03:08:43.641Z,0.00
2022-10-18T03:09:44.523Z,0.00
2022-10-18T03:10:45.408Z,0.00
2022-10-18T03:11:46.335Z,0.00
2022-10-18T03:12:47.195Z,0.00
2022-10-18T03:13:48.074Z,0.00
2022-10-18T03:14:48.968Z,0.00
2022-10-18T03:15:49.838Z,0.00
2022-10-18T03:16:50.724Z,0.00
2022-10-18T03:17:51.650Z,0.00
2022-10-18T03:18:52.494Z,0.00
2022-10-18T03:19:53.375Z,0.00
2022-10-18T03:20:54.261Z,0.00
2022-10-18T03:21:55.162Z,0.00
2022-10-18T03:22:56.039Z,0.00
2022-10-18T03:23:56.956Z,0.00
2022-10-18T03:24:57.811Z,0.00
2022-10-18T03:25:58.694Z,0.00
2022-10-18T03:26:59.597Z,0.00
2022-10-18T03:28:00.484Z,0.00
2022-10-18T03:29:01.485Z,0.00
2022-10-18T03:30:01.908Z,0.00
2022-10-18T03:31:02.760Z,0.00
2022-10-18T03:32:03.655Z,0.00
2022-10-18T03:33:04.538Z,0.00
2022-10-18T03:34:05.419Z,0.00
2022-10-18T03:35:06.305Z,0.00
2022-10-18T03:36:07.228Z,0.00
2022-10-18T03:37:08.098Z,0.00
2022-10-18T03:38:08.980Z,0.00
2022-10-18T03:39:09.853Z,0.00
2022-10-18T03:40:10.739Z,0.00
2022-10-18T03:41:11.622Z,0.00
2022-10-18T03:42:12.519Z,0.00
2022-10-18T03:43:13.398Z,0.00
2022-10-18T03:44:14.284Z,0.00
2022-10-18T03:45:15.187Z,0.00
2022-10-18T03:46:16.045Z,0.00
2022-10-18T03:47:16.949Z,0.00
2022-10-18T03:48:17.870Z,0.00
2022-10-18T03:49:18.746Z,0.00
2022-10-18T03:50:19.626Z,0.00
2022-10-18T03:51:20.518Z,0.00
2022-10-18T03:52:21.420Z,0.00
2022-10-18T03:53:22.296Z,0.00
2022-10-18T03:54:23.235Z,0.00
2022-10-18T03:55:24.073Z,0.00
2022-10-18T03:56:24.957Z,0.00
2022-10-18T03:57:25.849Z,0.00
2022-10-18T03:58:26.756Z,0.00
2022-10-18T03:59:27.624Z,0.00
2022-10-18T04:00:28.531Z,0.00
2022-10-18T04:01:29.419Z,0.00
2022-10-18T04:02:30.697Z,0.00
2022-10-18T04:03:31.137Z,0.00
2022-10-18T04:04:32.017Z,0.00
2022-10-18T04:05:32.902Z,0.00
2022-10-18T04:06:33.843Z,0.00
2022-10-18T04:07:34.696Z,0.00
2022-10-18T04:08:35.577Z,0.00
2022-10-18T04:09:36.454Z,0.00
2022-10-18T04:10:37.335Z,0.00
2022-10-18T04:11:38.210Z,0.00
2022-10-18T04:12:39.127Z,0.00
2022-10-18T04:13:39.990Z,0.00
2022-10-18T04:14:40.871Z,0.00
2022-10-18T04:15:41.775Z,0.00
2022-10-18T04:16:42.639Z,0.00
2022-10-18T04:17:43.532Z,0.00
2022-10-18T04:18:44.447Z,0.00
2022-10-18T04:19:45.301Z,0.00
2022-10-18T04:20:46.188Z,0.00
2022-10-18T04:21:47.085Z,0.00
2022-10-18T04:22:47.975Z,0.00
2022-10-18T04:23:48.867Z,0.00
2022-10-18T04:24:49.781Z,0.00
2022-10-18T04:25:50.645Z,0.00
2022-10-18T04:26:51.526Z,0.00
2022-10-18T04:27:52.409Z,0.00
2022-10-18T04:28:53.360Z,0.00
2022-10-18T04:29:54.205Z,0.00
2022-10-18T04:30:55.141Z,0.00
2022-10-18T04:31:56.000Z,0.00
2022-10-18T04:32:56.889Z,0.00
2022-10-18T04:33:57.763Z,0.00
2022-10-18T04:34:58.658Z,0.00
2022-10-18T04:35:59.562Z,0.00
2022-10-18T04:37:00.511Z,0.00
2022-10-18T04:38:01.369Z,0.00
2022-10-18T04:39:02.268Z,0.00
2022-10-18T04:40:03.143Z,0.00
2022-10-18T04:41:04.045Z,0.00
2022-10-18T04:42:04.947Z,0.00
2022-10-18T04:43:05.868Z,0.00
2022-10-18T04:44:06.745Z,0.00
2022-10-18T04:45:07.608Z,0.00
2022-10-18T04:46:08.499Z,0.00
2022-10-18T04:47:09.369Z,0.00
2022-10-18T04:48:10.260Z,0.00
2022-10-18T04:49:11.165Z,0.00
2022-10-18T04:50:12.035Z,0.00
2022-10-18T04:51:12.911Z,0.00
2022-10-18T04:52:13.806Z,0.00
2022-10-18T04:53:14.689Z,0.00
2022-10-18T04:54:15.564Z,0.00
2022-10-18T04:55:16.468Z,0.00
2022-10-18T04:56:17.331Z,0.00
2022-10-18T04:57:18.222Z,0.00
2022-10-18T04:58:19.115Z,0.00
2022-10-18T04:59:19.987Z,0.00
2022-10-18T05:00:20.880Z,0.00
2022-10-18T05:01:21.812Z,0.00
2022-10-18T05:02:22.657Z,0.00
2022-10-18T05:03:23.539Z,0.00
2022-10-18T05:04:24.415Z,0.00
2022-10-18T05:05:33.137Z,0.00
2022-10-18T05:06:27.064Z,0.00
2022-10-18T05:07:26.983Z,0.00
2022-10-18T05:08:27.840Z,0.00
2022-10-18T05:09:28.721Z,0.00
2022-10-18T05:10:29.604Z,0.00
2022-10-18T05:11:30.489Z,0.00
2022-10-18T05:12:31.686Z,0.00
2022-10-18T05:13:32.165Z,0.00
2022-10-18T05:14:33.018Z,0.00
2022-10-18T05:15:33.845Z,1.00
2022-10-18T05:16:34.744Z,0.00
2022-10-18T05:17:35.613Z,0.00
2022-10-18T05:18:36.497Z,0.00
2022-10-18T05:19:37.410Z,0.00
2022-10-18T05:20:38.222Z,1.00
2022-10-18T05:21:39.049Z,1.00
2022-10-18T05:22:39.934Z,0.00
2022-10-18T05:23:40.814Z,0.00
2022-10-18T05:24:41.700Z,0.00
2022-10-18T05:25:42.618Z,0.00
2022-10-18T05:26:43.439Z,1.00
2022-10-18T05:27:44.268Z,1.00
2022-10-18T05:28:45.235Z,0.00
2022-10-18T05:29:46.089Z,0.00
2022-10-18T05:30:46.926Z,4.00
2022-10-18T05:31:47.790Z,1.00
2022-10-18T05:32:48.595Z,1.00
2022-10-18T05:33:49.416Z,1.00
2022-10-18T05:34:50.244Z,2.00
2022-10-18T05:35:51.065Z,4.00
2022-10-18T05:36:51.893Z,3.00
2022-10-18T05:37:52.755Z,2.00
2022-10-18T05:38:53.556Z,6.00
2022-10-18T05:39:54.386Z,6.00
2022-10-18T05:40:55.214Z,4.00
2022-10-18T05:41:56.034Z,3.00
2022-10-18T05:42:56.873Z,3.00
2022-10-18T05:43:57.710Z,4.00
2022-10-18T05:44:58.538Z,5.00
2022-10-18T05:45:59.365Z,5.00
2022-10-18T05:47:00.233Z,5.00
2022-10-18T05:48:01.049Z,5.00
2022-10-18T05:49:01.875Z,9.00
2022-10-18T05:50:02.705Z,10.00
2022-10-18T05:51:03.552Z,10.00
2022-10-18T05:52:04.365Z,12.00
2022-10-18T05:53:12.343Z,11.00
2022-10-18T05:54:06.919Z,9.00
2022-10-18T05:55:06.750Z,12.00
2022-10-18T05:56:07.592Z,13.00
2022-10-18T05:57:08.406Z,13.00
2022-10-18T05:58:09.276Z,16.00
2022-10-18T05:59:10.123Z,14.00
2022-10-18T06:00:10.939Z,16.00
2022-10-18T06:01:11.787Z,14.00
2022-10-18T06:02:12.688Z,16.00
2022-10-18T06:03:13.478Z,16.00
2022-10-18T06:04:14.310Z,17.00
2022-10-18T06:05:15.140Z,20.00
2022-10-18T06:06:16.012Z,18.00
2022-10-18T06:07:16.833Z,21.00
2022-10-18T06:08:17.655Z,17.00
2022-10-18T06:09:18.490Z,15.00
2022-10-18T06:10:19.312Z,15.00
2022-10-18T06:11:20.141Z,15.00
2022-10-18T06:12:20.991Z,21.00
2022-10-18T06:13:21.812Z,18.00
2022-10-18T06:14:22.631Z,23.00
2022-10-18T06:15:23.460Z,21.00
2022-10-18T06:16:28.459Z,20.00
2022-10-18T06:17:27.788Z,16.00
2022-10-18T06:18:25.587Z,17.00
2022-10-18T06:19:26.447Z,17.00
2022-10-18T06:20:27.265Z,13.00
2022-10-18T06:21:28.095Z,15.00
2022-10-18T06:22:28.933Z,13.00
2022-10-18T06:23:29.771Z,15.00
2022-10-18T06:24:30.591Z,19.00
2022-10-18T06:25:31.437Z,20.00
2022-10-18T06:26:32.251Z,27.00
2022-10-18T06:27:33.464Z,30.00
2022-10-18T06:28:33.984Z,30.00
2022-10-18T06:29:34.782Z,55.00
2022-10-18T06:30:35.603Z,60.00
2022-10-18T06:31:36.432Z,51.00
2022-10-18T06:32:37.282Z,57.00
2022-10-18T06:33:38.101Z,47.00
2022-10-18T06:34:38.921Z,52.00
2022-10-18T06:35:39.749Z,99.00
2022-10-18T06:36:40.570Z,108.00
2022-10-18T06:38:42.196Z,100.00
2022-10-18T06:39:43.031Z,137.00
2022-10-18T06:40:43.864Z,162.00
2022-10-18T06:41:44.690Z,163.00
2022-10-18T06:42:55.236Z,193.00
2022-10-18T06:43:47.244Z,215.00
2022-10-18T06:44:47.105Z,239.00
2022-10-18T06:45:47.923Z,274.00
2022-10-18T06:46:48.737Z,311.00
2022-10-18T06:47:49.657Z,290.00
2022-10-18T06:48:50.423Z,308.00
2022-10-18T06:49:51.261Z,341.00
2022-10-18T06:50:52.088Z,340.00
2022-10-18T06:51:52.911Z,324.00
2022-10-18T06:52:53.743Z,296.00
2022-10-18T06:54:06.276Z,244.00
2022-10-18T06:54:56.290Z,538.00
2022-10-18T06:55:56.115Z,1009.00
2022-10-18T06:56:56.946Z,2608.00
2022-10-18T06:57:57.775Z,3429.00
2022-10-18T06:59:59.352Z,4153.00
2022-10-18T07:01:00.184Z,4399.00
2022-10-18T07:02:01.124Z,2470.00
2022-10-18T07:03:01.944Z,498.00
2022-10-18T07:04:02.757Z,3783.00
2022-10-18T07:05:03.576Z,2279.00
2022-10-18T07:06:04.405Z,2951.00
2022-10-18T07:07:05.245Z,907.00
2022-10-18T07:08:06.081Z,642.00
2022-10-18T07:09:06.902Z,600.00
2022-10-18T07:10:09.245Z,610.00
2022-10-18T07:11:08.414Z,669.00
2022-10-18T07:12:09.261Z,623.00
2022-10-18T07:14:16.076Z,576.00
2022-10-18T07:15:11.631Z,544.00
2022-10-18T07:16:14.288Z,394.00
2022-10-18T07:17:13.117Z,1327.00
2022-10-18T07:18:13.968Z,2015.00
2022-10-18T07:19:14.780Z,1945.00
2022-10-18T07:20:15.604Z,1823.00
2022-10-18T07:21:16.422Z,1669.00
2022-10-18T07:22:17.259Z,1528.00
2022-10-18T07:23:18.089Z,1309.00
2022-10-18T07:24:18.936Z,1215.00
2022-10-18T07:25:19.748Z,1260.00
2022-10-18T07:26:20.575Z,1350.00
2022-10-18T07:27:21.424Z,1536.00
2022-10-18T07:28:22.281Z,1934.00
2022-10-18T07:29:23.112Z,2281.00
2022-10-18T07:30:23.954Z,2431.00
2022-10-18T07:31:24.774Z,2463.00
2022-10-18T07:32:25.610Z,2552.00
2022-10-18T07:33:26.451Z,2797.00
2022-10-18T07:34:27.259Z,3343.00
2022-10-18T07:35:28.093Z,3507.00
2022-10-18T07:36:28.919Z,3204.00
2022-10-18T07:37:30.280Z,4178.00
2022-10-18T07:38:30.638Z,3393.00
2022-10-18T07:39:31.458Z,1326.00
2022-10-18T07:40:32.288Z,640.00
2022-10-18T07:41:33.119Z,4589.00
2022-10-18T07:42:33.950Z,4898.00
2022-10-18T07:43:34.770Z,1625.00
2022-10-18T07:44:35.599Z,365.00
2022-10-18T07:46:37.159Z,1001.00
2022-10-18T07:47:38.337Z,934.00
2022-10-18T07:48:38.688Z,693.00
2022-10-18T07:49:39.492Z,2232.00
2022-10-18T07:50:40.320Z,10928.00
2022-10-18T07:51:41.140Z,15518.00
2022-10-18T07:52:41.979Z,9523.00
2022-10-18T07:53:42.803Z,8888.00
2022-10-18T07:54:43.643Z,16534.00
2022-10-18T07:55:44.513Z,16557.00
2022-10-18T07:56:45.343Z,14356.00
2022-10-18T07:57:46.163Z,16019.00
2022-10-18T07:58:46.984Z,16068.00
2022-10-18T07:59:47.818Z,9477.00
2022-10-18T08:00:48.649Z,2240.00
2022-10-18T08:01:49.508Z,8907.00
2022-10-18T08:02:50.318Z,15402.00
2022-10-18T08:03:51.175Z,14553.00
2022-10-18T08:04:51.982Z,16564.00
2022-10-18T08:05:52.804Z,15320.00
2022-10-18T08:06:53.634Z,12946.00
2022-10-18T08:07:54.464Z,5385.00
2022-10-18T08:08:55.304Z,1667.00
2022-10-18T08:09:56.123Z,14310.00
2022-10-18T08:10:56.952Z,17629.00
2022-10-18T08:11:57.812Z,16659.00
2022-10-18T08:12:58.617Z,14850.00
2022-10-18T08:13:59.437Z,17612.00
2022-10-18T08:15:00.266Z,18211.00
2022-10-18T08:16:01.096Z,19520.00
2022-10-18T08:17:01.958Z,19771.00
2022-10-18T08:18:02.768Z,18046.00
2022-10-18T08:19:03.625Z,17842.00
2022-10-18T08:20:12.065Z,21976.00
2022-10-18T08:21:06.130Z,14552.00
2022-10-18T08:22:05.970Z,5266.00
2022-10-18T08:23:06.803Z,1678.00
2022-10-18T08:24:07.621Z,1423.00
2022-10-18T08:25:08.450Z,1174.00
2022-10-18T08:26:09.273Z,1288.00
2022-10-18T08:27:10.109Z,1061.00
2022-10-18T08:28:10.939Z,1304.00
2022-10-18T08:29:22.414Z,775.00
2022-10-18T08:30:13.485Z,1037.00
2022-10-18T08:31:13.314Z,869.00
2022-10-18T08:32:14.164Z,1049.00
2022-10-18T08:33:14.987Z,843.00
2022-10-18T08:34:19.515Z,733.00
2022-10-18T08:35:16.674Z,628.00
2022-10-18T08:36:17.493Z,797.00
2022-10-18T08:37:18.347Z,748.00
2022-10-18T08:38:19.166Z,714.00
2022-10-18T08:39:19.996Z,756.00
2022-10-18T08:40:20.840Z,655.00
2022-10-18T08:41:21.674Z,866.00
2022-10-18T08:42:22.497Z,697.00
2022-10-18T08:43:23.424Z,593.00
2022-10-18T08:44:24.205Z,737.00
2022-10-18T08:45:40.915Z,733.00
2022-10-18T08:46:26.741Z,641.00
2022-10-18T08:47:26.611Z,749.00
2022-10-18T08:48:27.419Z,922.00
2022-10-18T08:49:28.264Z,702.00
2022-10-18T08:50:29.068Z,555.00
2022-10-18T08:51:29.897Z,518.00
2022-10-18T08:52:30.790Z,319.00
2022-10-18T08:53:33.095Z,882.00
2022-10-18T08:54:32.278Z,470.00
2022-10-18T08:55:33.107Z,288.00
2022-10-18T08:56:33.939Z,852.00
2022-10-18T08:57:35.189Z,528.00
2022-10-18T08:58:35.567Z,583.00
2022-10-18T08:59:36.411Z,828.00
2022-10-18T09:00:37.239Z,565.00
2022-10-18T09:01:38.177Z,739.00
2022-10-18T09:02:38.999Z,554.00
2022-10-18T09:03:39.853Z,539.00
2022-10-18T09:04:40.609Z,504.00
2022-10-18T09:05:41.430Z,468.00
2022-10-18T09:06:42.247Z,439.00
2022-10-18T09:07:43.085Z,415.00
2022-10-18T09:08:43.905Z,384.00
2022-10-18T09:09:44.735Z,401.00
2022-10-18T09:10:45.603Z,374.00
2022-10-18T09:11:46.416Z,350.00
2022-10-18T09:12:47.238Z,274.00
2022-10-18T09:13:48.065Z,548.00
2022-10-18T09:14:48.894Z,432.00
2022-10-18T09:15:49.723Z,438.00
2022-10-18T09:16:50.548Z,463.00
2022-10-18T09:17:51.392Z,473.00
2022-10-18T09:18:52.212Z,567.00
2022-10-18T09:19:53.100Z,488.00
2022-10-18T09:20:53.872Z,573.00
2022-10-18T09:21:54.711Z,467.00
2022-10-18T09:22:55.540Z,435.00
2022-10-18T09:23:56.380Z,398.00
2022-10-18T09:24:57.198Z,457.00
2022-10-18T09:25:58.027Z,388.00
2022-10-18T09:26:58.882Z,395.00
2022-10-18T09:27:59.712Z,379.00
2022-10-18T09:29:00.642Z,412.00
2022-10-18T09:30:01.535Z,435.00
2022-10-18T09:31:02.333Z,449.00
2022-10-18T09:32:03.203Z,483.00
2022-10-18T09:33:04.022Z,557.00
2022-10-18T09:34:04.851Z,507.00
2022-10-18T09:35:05.726Z,488.00
2022-10-18T09:36:06.523Z,448.00
2022-10-18T09:37:07.369Z,349.00
2022-10-18T09:38:08.185Z,314.00
2022-10-18T09:39:09.017Z,651.00
2022-10-18T09:40:09.856Z,350.00
2022-10-18T09:41:10.686Z,516.00
2022-10-18T09:42:11.524Z,482.00
2022-10-18T09:43:12.370Z,455.00
2022-10-18T09:44:13.217Z,427.00
2022-10-18T09:45:14.034Z,393.00
2022-10-18T09:46:14.853Z,347.00
2022-10-18T09:47:16.920Z,331.00
2022-10-18T09:48:16.435Z,325.00
2022-10-18T09:49:17.284Z,316.00
2022-10-18T09:50:18.112Z,312.00
2022-10-18T09:51:18.923Z,328.00
2022-10-18T09:52:19.763Z,314.00
2022-10-18T09:53:20.591Z,318.00
2022-10-18T09:54:21.413Z,327.00
2022-10-18T09:55:22.252Z,354.00
2022-10-18T09:56:23.070Z,372.00
2022-10-18T09:57:23.911Z,391.00
2022-10-18T09:58:24.747Z,390.00
2022-10-18T09:59:25.572Z,365.00
2022-10-18T10:00:26.392Z,388.00
2022-10-18T10:01:27.239Z,358.00
2022-10-18T10:02:28.172Z,360.00
2022-10-18T10:03:28.980Z,673.00
2022-10-18T10:04:29.825Z,188.00
2022-10-18T10:05:30.680Z,318.00
2022-10-18T10:06:32.143Z,219.00
2022-10-18T10:07:34.781Z,677.00
2022-10-18T10:08:33.424Z,337.00
2022-10-18T10:09:34.253Z,268.00
2022-10-18T10:10:35.100Z,197.00
2022-10-18T10:11:35.918Z,378.00
2022-10-18T10:12:36.754Z,307.00
2022-10-18T10:13:37.598Z,344.00
2022-10-18T10:14:38.413Z,292.00
2022-10-18T10:15:42.371Z,303.00
2022-10-18T10:16:39.866Z,419.00
2022-10-18T10:17:40.693Z,434.00
2022-10-18T10:18:41.513Z,392.00
2022-10-18T10:19:42.363Z,385.00
2022-10-18T10:20:43.191Z,453.00
2022-10-18T10:21:44.009Z,421.00
2022-10-18T10:22:44.830Z,479.00
2022-10-18T10:23:45.655Z,431.00
2022-10-18T10:24:46.476Z,410.00
2022-10-18T10:25:47.319Z,362.00
2022-10-18T10:26:48.146Z,305.00
2022-10-18T10:27:48.976Z,248.00
2022-10-18T10:28:49.878Z,245.00
2022-10-18T10:29:50.729Z,241.00
2022-10-18T10:30:51.528Z,247.00
2022-10-18T10:31:52.366Z,314.00
2022-10-18T10:32:53.226Z,307.00
2022-10-18T10:33:54.026Z,252.00
2022-10-18T10:34:54.845Z,231.00
2022-10-18T10:35:55.729Z,244.00
2022-10-18T10:36:56.516Z,278.00
2022-10-18T10:37:57.413Z,148.00
2022-10-18T10:38:58.267Z,687.00
2022-10-18T10:40:17.417Z,172.00
2022-10-18T10:41:00.790Z,159.00
2022-10-18T10:42:00.646Z,215.00
2022-10-18T10:43:12.946Z,203.00
2022-10-18T10:44:03.192Z,181.00
2022-10-18T10:45:03.065Z,616.00
2022-10-18T10:46:03.861Z,172.00
2022-10-18T10:47:04.690Z,250.00
2022-10-18T10:48:05.560Z,236.00
2022-10-18T10:49:39.023Z,209.00
2022-10-18T10:50:08.054Z,206.00
2022-10-18T10:51:07.894Z,290.00
2022-10-18T10:52:22.439Z,178.00
2022-10-18T10:53:10.428Z,446.00
2022-10-18T10:54:10.257Z,152.00
2022-10-18T10:55:33.769Z,191.00
2022-10-18T10:56:15.868Z,193.00
2022-10-18T10:57:12.377Z,576.00
2022-10-18T10:58:13.176Z,130.00
2022-10-18T10:59:14.060Z,170.00
2022-10-18T11:00:14.832Z,436.00
2022-10-18T11:01:15.652Z,147.00
2022-10-18T11:02:16.492Z,610.00
2022-10-18T11:03:28.591Z,178.00
2022-10-18T11:04:19.119Z,210.00
2022-10-18T11:05:18.922Z,148.00
2022-10-18T11:06:19.773Z,170.00
2022-10-18T11:07:20.580Z,166.00
2022-10-18T11:08:23.944Z,128.00
2022-10-18T11:09:22.425Z,443.00
2022-10-18T11:10:23.227Z,125.00
2022-10-18T11:11:24.047Z,225.00
2022-10-18T11:12:24.885Z,246.00
2022-10-18T11:13:25.717Z,192.00
2022-10-18T11:14:27.211Z,177.00
2022-10-18T11:15:27.126Z,139.00
2022-10-18T11:16:27.938Z,152.00
2022-10-18T11:17:28.768Z,202.00
2022-10-18T11:18:29.596Z,226.00
2022-10-18T11:19:30.427Z,266.00
2022-10-18T11:20:31.255Z,222.00
2022-10-18T11:21:32.106Z,230.00
2022-10-18T11:22:33.298Z,258.00
2022-10-18T11:23:33.436Z,362.00
2022-10-18T11:24:34.264Z,205.00
2022-10-18T11:25:35.095Z,236.00
2022-10-18T11:26:40.897Z,235.00
2022-10-18T11:27:37.669Z,236.00
2022-10-18T11:28:37.521Z,388.00
2022-10-18T11:29:38.302Z,211.00
2022-10-18T11:30:39.133Z,451.00
2022-10-18T11:31:39.953Z,200.00
2022-10-18T11:32:40.792Z,693.00
2022-10-18T11:34:07.209Z,169.00
2022-10-18T11:34:43.326Z,654.00
2022-10-18T11:35:43.146Z,341.00
2022-10-18T11:36:54.532Z,244.00
2022-10-18T11:37:46.179Z,232.00
2022-10-18T11:38:45.579Z,196.00
2022-10-18T11:39:46.411Z,236.00
2022-10-18T11:40:47.233Z,150.00
2022-10-18T11:41:48.068Z,185.00
2022-10-18T11:42:48.905Z,171.00
2022-10-18T11:44:02.141Z,152.00
2022-10-18T11:44:51.550Z,171.00
2022-10-18T11:45:51.406Z,162.00
2022-10-18T11:46:52.216Z,165.00
2022-10-18T11:47:55.710Z,163.00
2022-10-18T11:48:53.751Z,91.00
2022-10-18T11:49:54.584Z,220.00
2022-10-18T11:50:55.410Z,230.00
2022-10-18T11:52:07.957Z,225.00
2022-10-18T11:52:57.955Z,197.00
2022-10-18T11:53:57.776Z,258.00
2022-10-18T11:54:58.605Z,237.00
2022-10-18T11:55:59.434Z,209.00
2022-10-18T11:57:00.271Z,186.00
2022-10-18T11:58:01.116Z,119.00
2022-10-18T11:59:01.930Z,372.00
2022-10-18T12:00:02.752Z,185.00
2022-10-18T12:01:03.579Z,121.00
2022-10-18T12:02:04.423Z,163.00
2022-10-18T12:03:05.329Z,199.00
2022-10-18T12:04:06.188Z,214.00
2022-10-18T12:05:24.068Z,215.00
2022-10-18T12:06:08.703Z,219.00
2022-10-18T12:07:08.557Z,348.00
2022-10-18T12:08:09.374Z,344.00
2022-10-18T12:09:10.203Z,191.00
2022-10-18T12:10:11.146Z,232.00
2022-10-18T12:11:11.902Z,269.00
2022-10-18T12:12:12.733Z,552.00
2022-10-18T12:13:13.562Z,175.00
2022-10-18T12:14:14.383Z,225.00
2022-10-18T12:15:15.212Z,264.00
2022-10-18T12:16:16.059Z,245.00
2022-10-18T12:18:18.599Z,217.00
2022-10-18T12:19:22.028Z,207.00
2022-10-18T12:20:20.143Z,204.00
2022-10-18T12:21:24.543Z,197.00
2022-10-18T12:22:21.723Z,197.00
2022-10-18T12:23:21.532Z,196.00
2022-10-18T12:24:22.370Z,196.00
2022-10-18T12:25:23.199Z,198.00
2022-10-18T12:26:24.028Z,205.00
2022-10-18T12:27:24.857Z,210.00
2022-10-18T12:28:25.736Z,213.00
2022-10-18T12:29:26.519Z,218.00
2022-10-18T12:30:27.340Z,706.00
2022-10-18T12:31:28.181Z,257.00
2022-10-18T12:32:29.225Z,205.00
2022-10-18T12:33:29.607Z,113.00
2022-10-18T12:34:30.464Z,278.00
2022-10-18T12:35:31.270Z,132.00
2022-10-18T12:36:32.119Z,365.00
2022-10-18T12:37:33.079Z,277.00
2022-10-18T12:38:33.476Z,182.00
2022-10-18T12:39:43.762Z,229.00
2022-10-18T12:40:36.068Z,225.00
2022-10-18T12:41:35.875Z,200.00
2022-10-18T12:42:36.696Z,230.00
2022-10-18T12:43:37.527Z,204.00
2022-10-18T12:44:38.362Z,205.00
2022-10-18T12:45:39.184Z,223.00
2022-10-18T12:46:40.049Z,211.00
2022-10-18T12:47:40.864Z,99.00
2022-10-18T12:48:41.696Z,145.00
2022-10-18T12:49:44.026Z,507.00
2022-10-18T12:50:43.394Z,443.00
2022-10-18T12:51:44.234Z,176.00
2022-10-18T12:52:45.096Z,243.00
2022-10-18T12:53:45.911Z,123.00
2022-10-18T12:54:46.744Z,250.00
2022-10-18T12:55:47.623Z,172.00
2022-10-18T12:56:48.486Z,480.00
2022-10-18T12:57:49.337Z,550.00
2022-10-18T12:58:50.180Z,256.00
2022-10-18T12:59:51.002Z,230.00
2022-10-18T13:00:51.821Z,172.00
2022-10-18T13:01:52.767Z,182.00
2022-10-18T13:02:53.636Z,194.00
2022-10-18T13:03:54.452Z,161.00
2022-10-18T13:04:55.299Z,138.00
2022-10-18T13:05:56.531Z,195.00